Faaborg, Denmark
Current Conditions -  °F | °C
As of 10:50 PM on Wednesday 22 Oct 2014 (Local Time) from EKSB Reporting Station
Broken Clouds Broken Clouds  
Wind Chill: 54°   Ceiling: 700
Heat Index: 54°   Visibility: 6mi
Dew Point: 50°   Wind: 13mph
Humidity: 88%   Direction: 310°NW
Pressure: 29.97"   Gusts: NA
Location:  55.1°N, 10.24°E
Report Text: EKSB 222050Z 31011KT 9999 BKN007 BKN010 12/10 Q1015
Loading
Personal Weather Stations






























Interactive Weather Map
Tropical Storm Tracking
New forecast layout! Learn more

10-Day Weather Forecast

Advertisements
Track Severe Weather on mobile